Time;durP1;ratioP1;P1;durP2;ratioP2;P2;SDS_P1;SDS_P2;PMS_P1;PMS_P2;Temp;Humidity;BMP_temperature;BMP_pressure;BME280_temperature;BME280_humidity;BME280_pressure;Samples;Min_cycle;Max_cycle;Signal;HPM_P1;HPM_P2
2022/04/11 00:01:24;;;;;;;17.63;2.83;;;3.00;99.90;;;;;;5033966;28;20025;-67
2022/04/11 00:03:50;;;;;;;17.73;3.05;;;3.00;99.90;;;;;;5033558;28;20025;-67
2022/04/11 00:06:16;;;;;;;10.35;2.58;;;3.10;99.90;;;;;;5033597;28;20389;-67
2022/04/11 00:08:42;;;;;;;9.43;2.60;;;3.10;99.90;;;;;;5033620;28;20025;-66
2022/04/11 00:11:08;;;;;;;6.60;2.60;;;3.10;99.90;;;;;;5033570;28;20036;-66
2022/04/11 00:13:34;;;;;;;15.30;3.28;;;3.00;99.90;;;;;;5033798;28;20374;-66
2022/04/11 00:15:59;;;;;;;14.95;3.38;;;2.90;99.90;;;;;;5033496;28;20480;-66
2022/04/11 00:18:25;;;;;;;11.93;2.90;;;2.80;99.90;;;;;;5033733;28;20140;-66
2022/04/11 00:20:51;;;;;;;9.77;2.63;;;2.70;99.90;;;;;;5033321;28;20029;-66
2022/04/11 00:23:16;;;;;;;25.27;3.15;;;2.70;99.90;;;;;;5033426;28;20389;-67
2022/04/11 00:25:42;;;;;;;9.70;2.97;;;2.60;99.90;;;;;;5033345;28;20092;-67
2022/04/11 00:28:08;;;;;;;16.08;3.10;;;2.60;99.90;;;;;;5033340;28;20028;-66
2022/04/11 00:30:34;;;;;;;15.25;3.17;;;2.50;99.90;;;;;;5033255;28;20462;-67
2022/04/11 00:33:00;;;;;;;19.65;4.03;;;2.50;99.90;;;;;;5033570;28;20382;-67
2022/04/11 00:35:25;;;;;;;16.45;3.88;;;2.50;99.90;;;;;;5033506;28;20033;-66
2022/04/11 00:37:51;;;;;;;10.98;4.30;;;2.50;99.90;;;;;;5033522;28;20034;-66
2022/04/11 00:40:17;;;;;;;17.02;4.45;;;2.50;99.90;;;;;;5033329;28;20056;-67
2022/04/11 00:42:42;;;;;;;20.13;3.60;;;2.50;99.90;;;;;;5033123;28;20108;-67
2022/04/11 00:45:08;;;;;;;16.60;3.15;;;2.50;99.90;;;;;;5033182;28;20099;-66
2022/04/11 00:47:34;;;;;;;12.30;3.92;;;2.50;99.90;;;;;;5033217;28;20056;-66
2022/04/11 00:50:08;;;;;;;34.90;4.13;;;2.40;99.90;;;;;;5033336;28;20033;-66
2022/04/11 00:52:37;;;;;;;10.82;2.65;;;2.40;99.90;;;;;;5033130;28;20030;-66
2022/04/11 00:55:04;;;;;;;15.85;2.80;;;2.20;99.90;;;;;;5033142;28;20108;-66
2022/04/11 00:57:30;;;;;;;8.60;2.70;;;2.10;99.90;;;;;;5033068;28;20037;-66
2022/04/11 00:59:59;;;;;;;11.60;2.72;;;2.00;99.90;;;;;;5033005;28;20104;-67
2022/04/11 01:02:25;;;;;;;9.18;2.53;;;2.00;99.90;;;;;;5033570;28;20018;-66
2022/04/11 01:04:50;;;;;;;12.90;2.42;;;1.90;99.90;;;;;;5032962;28;20026;-66
2022/04/11 01:07:16;;;;;;;10.57;2.58;;;1.90;99.90;;;;;;5032935;28;20505;-66
2022/04/11 01:09:42;;;;;;;8.73;3.47;;;1.90;99.90;;;;;;5033355;28;20502;-66
2022/04/11 01:12:08;;;;;;;15.40;2.67;;;1.90;99.90;;;;;;5034018;28;20076;-66
2022/04/11 01:14:33;;;;;;;19.23;3.53;;;2.00;99.90;;;;;;5033179;28;20075;-67
2022/04/11 01:16:59;;;;;;;13.73;2.90;;;2.10;99.90;;;;;;5032837;28;20029;-67
2022/04/11 01:19:26;;;;;;;14.13;3.17;;;2.00;99.90;;;;;;5032816;28;20108;-67
2022/04/11 01:21:51;;;;;;;18.50;2.75;;;1.90;99.90;;;;;;5032910;28;20482;-67
2022/04/11 01:24:21;;;;;;;8.80;2.33;;;1.80;99.90;;;;;;5032655;28;20051;-67
2022/04/11 01:26:48;;;;;;;12.82;2.67;;;1.70;99.90;;;;;;5033165;28;20064;-67
2022/04/11 01:29:15;;;;;;;6.05;2.80;;;1.60;99.90;;;;;;5014995;28;20470;-67
2022/04/11 01:31:41;;;;;;;12.25;2.78;;;1.60;99.90;;;;;;5032762;28;20018;-67
2022/04/11 01:34:06;;;;;;;11.73;3.03;;;1.60;99.90;;;;;;5032727;28;20367;-67
2022/04/11 01:36:32;;;;;;;16.17;3.20;;;1.50;99.90;;;;;;5035994;28;20021;-67
2022/04/11 01:38:57;;;;;;;23.67;3.75;;;1.50;99.90;;;;;;5036185;28;20589;-67
2022/04/11 01:41:23;;;;;;;18.35;3.80;;;1.60;99.90;;;;;;5036158;28;20544;-67
2022/04/11 01:43:49;;;;;;;22.60;4.20;;;1.60;99.90;;;;;;5036768;28;20402;-67
2022/04/11 01:46:15;;;;;;;15.95;3.25;;;1.70;99.90;;;;;;5036032;28;20087;-67
2022/04/11 01:48:40;;;;;;;31.92;4.22;;;1.80;99.90;;;;;;5036003;28;20033;-67
2022/04/11 01:51:06;;;;;;;9.02;3.13;;;1.90;99.90;;;;;;5036022;28;20079;-67
2022/04/11 01:53:31;;;;;;;7.75;4.00;;;2.00;99.90;;;;;;5036074;28;20024;-67
2022/04/11 01:55:57;;;;;;;21.27;3.55;;;2.10;99.90;;;;;;5035976;28;20367;-67
2022/04/11 01:58:23;;;;;;;14.07;3.78;;;2.10;99.90;;;;;;5036243;28;20048;-67
2022/04/11 02:00:48;;;;;;;13.05;3.85;;;2.10;99.90;;;;;;5035738;28;20485;-67
2022/04/11 02:03:14;;;;;;;10.20;2.90;;;2.10;99.90;;;;;;5035813;28;20390;-67
2022/04/11 02:05:41;;;;;;;9.95;3.05;;;2.10;99.90;;;;;;5035711;28;20037;-67
2022/04/11 02:08:09;;;;;;;8.43;2.72;;;2.10;99.90;;;;;;5017920;28;20029;-67
2022/04/11 02:10:36;;;;;;;11.65;4.22;;;2.00;99.90;;;;;;5035563;28;20068;-67
2022/04/11 02:13:03;;;;;;;16.33;3.75;;;1.90;99.90;;;;;;5036146;28;20028;-67
2022/04/11 02:15:29;;;;;;;14.27;3.25;;;1.90;99.90;;;;;;5035675;28;20034;-67
2022/04/11 02:17:54;;;;;;;9.05;3.55;;;2.00;99.90;;;;;;5035591;28;20026;-66
2022/04/11 02:20:20;;;;;;;8.50;3.30;;;2.00;99.90;;;;;;5035467;28;20025;-67
2022/04/11 02:22:46;;;;;;;10.32;4.05;;;2.10;99.90;;;;;;5035444;28;20029;-67
2022/04/11 02:25:12;;;;;;;22.00;3.95;;;2.20;99.90;;;;;;5035349;28;20040;-67
2022/04/11 02:27:38;;;;;;;18.73;4.40;;;2.20;99.90;;;;;;5035689;28;20053;-67
2022/04/11 02:30:04;;;;;;;13.70;3.90;;;2.30;99.90;;;;;;5035438;28;20021;-67
2022/04/11 02:32:30;;;;;;;20.83;4.95;;;2.20;99.90;;;;;;5035363;28;20104;-66
2022/04/11 02:34:56;;;;;;;24.33;4.20;;;2.10;99.90;;;;;;5035509;28;20072;-67
2022/04/11 02:37:21;;;;;;;9.85;3.58;;;2.10;99.90;;;;;;5035229;28;20389;-67
2022/04/11 02:39:47;;;;;;;20.95;4.10;;;2.10;99.90;;;;;;5035058;28;20086;-67
2022/04/11 02:42:24;;;;;;;20.75;3.92;;;2.10;99.90;;;;;;5035096;28;20033;-66
2022/04/11 02:44:50;;;;;;;14.65;4.35;;;2.10;99.90;;;;;;5035049;28;20556;-67
2022/04/11 02:47:16;;;;;;;16.98;3.85;;;2.00;99.90;;;;;;5034058;28;20116;-67
2022/04/11 02:49:41;;;;;;;11.02;3.63;;;2.00;99.90;;;;;;5034891;28;20064;-66
2022/04/11 02:52:07;;;;;;;11.85;3.72;;;1.90;99.90;;;;;;5034934;28;20022;-66
2022/04/11 02:54:33;;;;;;;19.20;3.67;;;1.80;99.90;;;;;;5035148;28;20030;-66
2022/04/11 02:56:58;;;;;;;10.27;3.05;;;1.60;99.90;;;;;;5034909;28;20102;-66
2022/04/11 02:59:24;;;;;;;6.88;3.65;;;1.50;99.90;;;;;;5034897;28;20029;-67
2022/04/11 03:01:50;;;;;;;9.45;3.47;;;1.50;99.90;;;;;;5034982;28;20473;-66
2022/04/11 03:04:16;;;;;;;6.05;3.08;;;1.40;99.90;;;;;;5034997;28;20034;-67
2022/04/11 03:06:42;;;;;;;8.43;3.35;;;1.30;99.90;;;;;;5034666;28;20049;-67
2022/04/11 03:09:08;;;;;;;10.70;3.55;;;1.30;99.90;;;;;;5034616;28;20506;-66
2022/04/11 03:11:34;;;;;;;7.65;2.92;;;1.20;99.90;;;;;;5034833;28;20022;-66
2022/04/11 03:14:00;;;;;;;12.80;3.38;;;1.20;99.90;;;;;;5034558;28;20470;-66
2022/04/11 03:16:25;;;;;;;10.27;3.53;;;1.10;99.90;;;;;;5034679;28;20033;-66
2022/04/11 03:18:51;;;;;;;14.30;5.18;;;1.10;99.90;;;;;;5034388;28;20026;-66
2022/04/11 03:21:16;;;;;;;14.45;5.07;;;1.10;99.90;;;;;;5034352;28;20021;-66
2022/04/11 03:23:42;;;;;;;12.85;4.93;;;1.20;99.90;;;;;;5034227;28;20064;-66
2022/04/11 03:26:08;;;;;;;19.85;5.40;;;1.20;99.90;;;;;;5034710;28;20040;-66
2022/04/11 03:28:33;;;;;;;17.35;4.65;;;1.20;99.90;;;;;;5034691;28;20083;-66
2022/04/11 03:30:59;;;;;;;11.90;3.83;;;1.20;99.90;;;;;;5034129;28;20085;-67
2022/04/11 03:33:25;;;;;;;12.02;4.07;;;1.10;99.90;;;;;;5034896;28;20033;-66
2022/04/11 03:35:51;;;;;;;6.93;3.58;;;1.00;99.90;;;;;;5034755;28;20030;-66
2022/04/11 03:38:17;;;;;;;18.58;4.35;;;1.00;99.90;;;;;;5034310;28;20139;-66
2022/04/11 03:40:42;;;;;;;10.50;3.50;;;0.90;99.90;;;;;;5033862;28;20083;-67
2022/04/11 03:43:09;;;;;;;11.02;3.92;;;0.80;99.90;;;;;;5033808;28;20115;-67
2022/04/11 03:45:34;;;;;;;8.93;3.67;;;0.70;99.90;;;;;;5034129;28;20017;-67
2022/04/11 03:48:00;;;;;;;11.85;3.85;;;0.70;99.90;;;;;;5034174;28;20033;-67
2022/04/11 03:50:26;;;;;;;11.55;3.58;;;0.70;99.90;;;;;;5033764;28;20022;-67
2022/04/11 03:52:51;;;;;;;14.90;3.72;;;0.70;99.90;;;;;;5034118;28;20056;-67
2022/04/11 03:55:17;;;;;;;9.38;3.33;;;0.70;99.90;;;;;;5033763;28;20034;-67
2022/04/11 03:57:42;;;;;;;15.02;4.10;;;0.70;99.90;;;;;;5033616;28;20377;-67
2022/04/11 04:00:09;;;;;;;8.45;4.22;;;0.60;99.90;;;;;;5034160;28;20079;-67
2022/04/11 04:02:34;;;;;;;12.32;4.20;;;0.60;99.90;;;;;;5033732;28;20037;-66
2022/04/11 04:05:00;;;;;;;14.70;4.25;;;0.60;99.90;;;;;;5033524;28;20116;-66
2022/04/11 04:07:26;;;;;;;13.18;3.85;;;0.60;99.90;;;;;;5033639;28;20057;-66
2022/04/11 04:09:51;;;;;;;10.05;3.90;;;0.60;99.90;;;;;;5033377;28;20034;-67
2022/04/11 04:12:21;;;;;;;11.68;4.30;;;0.50;99.90;;;;;;5033818;28;20017;-67
2022/04/11 04:14:47;;;;;;;12.70;3.90;;;0.50;99.90;;;;;;5033541;28;20423;-67
2022/04/11 04:17:13;;;;;;;12.48;4.05;;;0.50;99.90;;;;;;5015741;28;20029;-67
2022/04/11 04:19:39;;;;;;;15.20;4.05;;;0.40;99.90;;;;;;5033693;28;20034;-67
2022/04/11 04:22:05;;;;;;;13.05;4.18;;;0.30;99.90;;;;;;5033795;28;20477;-66
2022/04/11 04:24:36;;;;;;;7.85;4.05;;;0.20;99.90;;;;;;5033542;28;20528;-66
2022/04/11 04:27:03;;;;;;;14.32;5.25;;;0.20;99.90;;;;;;5033573;28;20029;-66
2022/04/11 04:29:28;;;;;;;12.23;3.95;;;0.10;99.90;;;;;;5033215;28;20632;-67
2022/04/11 04:31:54;;;;;;;5.65;3.95;;;0.10;99.90;;;;;;5033264;28;20068;-67
2022/04/11 04:34:20;;;;;;;7.45;3.60;;;0.10;99.90;;;;;;5033236;28;20048;-66
2022/04/11 04:36:47;;;;;;;10.98;3.75;;;0.10;99.90;;;;;;5033422;28;20029;-67
2022/04/11 04:39:12;;;;;;;4.95;3.50;;;0.20;99.90;;;;;;5033160;28;20029;-67
2022/04/11 04:41:38;;;;;;;6.03;3.60;;;0.10;99.90;;;;;;5015546;28;20521;-66
2022/04/11 04:44:06;;;;;;;6.95;3.97;;;0.10;99.90;;;;;;5033124;28;20029;-66
2022/04/11 04:46:32;;;;;;;10.50;3.38;;;0.10;99.90;;;;;;5033163;28;20026;-67
2022/04/11 04:48:57;;;;;;;8.25;3.95;;;0.10;99.90;;;;;;5033567;28;20029;-66
2022/04/11 04:51:23;;;;;;;12.65;4.90;;;0.10;99.90;;;;;;5033119;28;20021;-66
2022/04/11 04:53:49;;;;;;;14.63;5.47;;;0.20;99.90;;;;;;5033085;28;20108;-66
2022/04/11 04:56:14;;;;;;;7.90;4.30;;;0.30;99.90;;;;;;5033087;28;20074;-66
2022/04/11 04:58:40;;;;;;;11.82;4.18;;;0.30;99.90;;;;;;5033011;28;20052;-66
2022/04/11 05:01:05;;;;;;;9.88;4.63;;;0.40;99.90;;;;;;5033299;28;20034;-66
2022/04/11 05:03:31;;;;;;;14.95;4.70;;;0.30;99.90;;;;;;5032971;28;20477;-66
2022/04/11 05:05:56;;;;;;;11.25;4.47;;;0.40;99.90;;;;;;5032914;28;20031;-66
2022/04/11 05:08:22;;;;;;;7.57;4.22;;;0.40;99.90;;;;;;5033173;28;20021;-66
2022/04/11 05:10:47;;;;;;;5.90;3.97;;;0.40;99.90;;;;;;5035135;28;20064;-66
2022/04/11 05:13:13;;;;;;;9.70;3.50;;;0.30;99.90;;;;;;5037331;28;20017;-69
2022/04/11 05:15:42;;;;;;;8.07;3.92;;;0.30;99.90;;;;;;5036715;28;20112;-69
2022/04/11 05:18:08;;;;;;;12.23;3.75;;;0.30;99.90;;;;;;5036618;28;20478;-69
2022/04/11 05:20:34;;;;;;;10.40;3.92;;;0.30;99.90;;;;;;5036481;28;20036;-69
2022/04/11 05:22:59;;;;;;;15.15;4.60;;;0.30;99.90;;;;;;5036907;28;20382;-69
2022/04/11 05:25:25;;;;;;;8.52;4.10;;;0.30;99.90;;;;;;5036428;28;20379;-69
2022/04/11 05:27:51;;;;;;;10.95;4.28;;;0.40;99.90;;;;;;5036455;28;20048;-69
2022/04/11 05:30:18;;;;;;;7.75;4.28;;;0.40;99.90;;;;;;5036394;28;20470;-69
2022/04/11 05:32:43;;;;;;;11.25;4.25;;;0.50;99.90;;;;;;5037213;28;20025;-69
2022/04/11 05:35:09;;;;;;;11.55;3.80;;;0.60;99.90;;;;;;5036334;28;20032;-69
2022/04/11 05:37:35;;;;;;;9.18;4.30;;;0.60;99.90;;;;;;5036285;28;20025;-69
2022/04/11 05:40:01;;;;;;;13.38;4.90;;;0.70;99.90;;;;;;5036268;28;20021;-69
2022/04/11 05:42:27;;;;;;;11.32;5.18;;;0.80;99.90;;;;;;5036189;28;20393;-69
2022/04/11 05:44:52;;;;;;;11.52;4.85;;;1.00;99.90;;;;;;5036358;28;20044;-69
2022/04/11 05:47:18;;;;;;;20.05;5.20;;;1.10;99.90;;;;;;5036572;28;20036;-68
2022/04/11 05:49:43;;;;;;;10.77;5.18;;;1.20;99.90;;;;;;5036030;28;20076;-69
2022/04/11 05:52:15;;;;;;;15.02;6.05;;;1.30;99.90;;;;;;5036319;28;20488;-69
2022/04/11 05:54:40;;;;;;;14.57;5.28;;;1.50;99.90;;;;;;5036280;28;20029;-69
2022/04/11 05:57:06;;;;;;;8.68;4.70;;;1.60;99.90;;;;;;5036239;28;20390;-69
2022/04/11 05:59:31;;;;;;;13.70;5.80;;;1.80;99.90;;;;;;5036036;28;20048;-69
2022/04/11 06:01:57;;;;;;;14.05;5.13;;;2.00;99.90;;;;;;5036116;28;20504;-69
2022/04/11 06:04:23;;;;;;;15.15;5.18;;;2.30;99.90;;;;;;5036077;28;20100;-69
2022/04/11 06:06:48;;;;;;;14.65;4.95;;;2.30;99.90;;;;;;5035858;28;20050;-69
2022/04/11 06:09:14;;;;;;;10.15;5.38;;;2.40;99.90;;;;;;5035793;28;20037;-69
2022/04/11 06:11:40;;;;;;;13.90;4.57;;;2.40;99.90;;;;;;5035964;28;20377;-69
2022/04/11 06:14:05;;;;;;;8.80;5.13;;;2.40;99.90;;;;;;5035694;28;20022;-69
2022/04/11 06:16:31;;;;;;;14.55;5.30;;;2.40;99.90;;;;;;5035691;28;20033;-69
2022/04/11 06:18:57;;;;;;;14.77;4.97;;;2.50;99.90;;;;;;5035750;28;20104;-69
2022/04/11 06:21:23;;;;;;;14.18;5.90;;;2.70;99.90;;;;;;5035595;28;20033;-69
2022/04/11 06:23:49;;;;;;;23.05;6.75;;;3.00;99.90;;;;;;5035480;28;20022;-69
2022/04/11 06:26:15;;;;;;;24.23;6.05;;;3.30;99.90;;;;;;5035404;28;20393;-69
2022/04/11 06:28:43;;;;;;;28.30;5.65;;;3.50;99.90;;;;;;5035261;28;20021;-69
2022/04/11 06:31:14;;;;;;;29.35;6.13;;;3.60;99.90;;;;;;5035320;28;20051;-69
2022/04/11 06:33:40;;;;;;;19.15;5.43;;;3.70;99.90;;;;;;5035492;28;20076;-69
2022/04/11 06:36:05;;;;;;;22.92;7.30;;;3.80;99.90;;;;;;5035482;28;20100;-69
2022/04/11 06:38:32;;;;;;;28.48;6.03;;;3.90;99.90;;;;;;5035144;28;20033;-69
2022/04/11 06:40:57;;;;;;;24.83;5.05;;;4.00;99.90;;;;;;5035060;28;20022;-69
2022/04/11 06:43:23;;;;;;;13.57;4.80;;;3.90;99.90;;;;;;5035123;28;20060;-69
2022/04/11 06:45:49;;;;;;;18.30;4.80;;;3.90;99.90;;;;;;5034917;28;20025;-69
2022/04/11 06:48:15;;;;;;;26.45;5.07;;;3.80;99.90;;;;;;5034975;28;20028;-69
2022/04/11 06:50:40;;;;;;;15.05;4.68;;;3.80;99.90;;;;;;5034858;28;20117;-69
2022/04/11 06:53:06;;;;;;;20.75;4.68;;;3.80;99.90;;;;;;5034930;28;20060;-69
2022/04/11 06:55:32;;;;;;;28.92;5.72;;;3.90;99.90;;;;;;5035135;28;20053;-69
2022/04/11 06:57:59;;;;;;;12.13;4.30;;;4.00;99.90;;;;;;5034809;28;20025;-69
2022/04/11 07:00:25;;;;;;;20.20;4.57;;;4.10;99.90;;;;;;5034663;28;20026;-69
2022/04/11 07:02:50;;;;;;;12.88;4.40;;;4.30;99.90;;;;;;5034967;28;20029;-69
2022/04/11 07:05:16;;;;;;;29.35;3.83;;;4.40;99.90;;;;;;5034605;28;20059;-69
2022/04/11 07:07:41;;;;;;;20.38;4.60;;;4.70;99.90;;;;;;5035177;28;20018;-69
2022/04/11 07:10:09;;;;;;;18.20;4.68;;;5.00;99.90;;;;;;5034320;28;20124;-69
2022/04/11 07:12:41;;;;;;;11.48;3.15;;;5.10;99.90;;;;;;5034538;28;20033;-72
2022/04/11 07:15:08;;;;;;;15.88;3.53;;;5.10;99.90;;;;;;5034726;28;20057;-70
2022/04/11 07:17:33;;;;;;;5.80;2.67;;;5.00;99.90;;;;;;5016622;28;20120;-69
2022/04/11 07:19:59;;;;;;;20.38;3.72;;;5.10;99.90;;;;;;5034359;28;20064;-69
2022/04/11 07:22:25;;;;;;;16.75;2.95;;;5.10;99.90;;;;;;5034304;28;20075;-69
2022/04/11 07:24:51;;;;;;;11.63;1.90;;;5.20;99.90;;;;;;5034128;28;20022;-69
2022/04/11 07:27:16;;;;;;;8.93;1.65;;;5.40;99.90;;;;;;5034257;28;20033;-70
2022/04/11 07:29:42;;;;;;;1.65;1.33;;;5.50;99.90;;;;;;5034118;28;20072;-70
2022/04/11 07:32:08;;;;;;;8.25;2.00;;;5.60;99.90;;;;;;5033626;28;20021;-70
2022/04/11 07:34:33;;;;;;;9.18;2.75;;;5.70;99.90;;;;;;5033906;28;20040;-69
2022/04/11 07:36:59;;;;;;;9.98;1.70;;;5.80;99.90;;;;;;5034289;28;20055;-70
2022/04/11 07:39:25;;;;;;;7.50;1.90;;;5.90;99.90;;;;;;5033919;28;20049;-70
2022/04/11 07:41:53;;;;;;;15.10;2.20;;;6.10;99.90;;;;;;5033944;28;20486;-70
2022/04/11 07:44:19;;;;;;;8.82;1.80;;;6.40;99.90;;;;;;5033897;28;20083;-70
2022/04/11 07:46:44;;;;;;;18.73;1.98;;;6.40;99.90;;;;;;5034190;28;20063;-69
2022/04/11 07:49:10;;;;;;;6.68;1.73;;;6.20;99.90;;;;;;5016702;28;20104;-70
2022/04/11 07:51:36;;;;;;;15.63;1.75;;;6.30;99.90;;;;;;5034099;28;20029;-70
2022/04/11 07:54:01;;;;;;;10.73;2.00;;;6.40;99.90;;;;;;5034029;28;20033;-70
2022/04/11 07:56:28;;;;;;;9.10;2.50;;;6.60;99.90;;;;;;5033773;28;20033;-70
2022/04/11 07:58:57;;;;;;;12.27;1.65;;;6.60;99.90;;;;;;5033700;28;20089;-70
2022/04/11 08:01:28;;;;;;;8.60;2.10;;;6.50;99.90;;;;;;5033642;28;20029;-70
2022/04/11 08:03:53;;;;;;;4.18;1.25;;;6.50;99.90;;;;;;5033620;28;20021;-70
2022/04/11 08:06:19;;;;;;;11.93;1.65;;;6.60;99.90;;;;;;5033860;28;20382;-70
2022/04/11 08:08:46;;;;;;;20.45;2.63;;;6.70;99.90;;;;;;5015783;28;20061;-70
2022/04/11 08:11:13;;;;;;;5.53;1.50;;;6.80;99.90;;;;;;5033889;28;20065;-70
2022/04/11 08:13:39;;;;;;;8.57;1.90;;;7.10;99.90;;;;;;5034042;28;20057;-70
2022/04/11 08:16:05;;;;;;;11.52;1.73;;;7.30;99.90;;;;;;5033464;28;20029;-70
2022/04/11 08:18:31;;;;;;;13.65;1.73;;;7.70;99.90;;;;;;5033457;28;20026;-70
2022/04/11 08:20:56;;;;;;;10.30;1.88;;;7.90;99.90;;;;;;5033972;28;20033;-69
2022/04/11 08:23:22;;;;;;;7.88;1.40;;;7.90;99.90;;;;;;5033873;28;20029;-70
2022/04/11 08:25:49;;;;;;;8.70;1.60;;;7.70;99.90;;;;;;5033343;28;20029;-68
2022/04/11 08:28:15;;;;;;;8.43;1.70;;;7.60;99.90;;;;;;5033372;28;20026;-69
2022/04/11 08:30:40;;;;;;;11.52;1.60;;;7.50;99.90;;;;;;5033229;28;20053;-70
2022/04/11 08:33:06;;;;;;;18.40;2.03;;;7.10;99.90;;;;;;5033525;28;20087;-70
2022/04/11 08:35:31;;;;;;;14.55;2.60;;;6.70;99.90;;;;;;5033286;28;20030;-70
2022/04/11 08:37:57;;;;;;;7.53;1.95;;;6.40;99.90;;;;;;5033195;28;20037;-69
2022/04/11 08:40:23;;;;;;;10.85;1.35;;;6.40;99.90;;;;;;5033153;28;20030;-70
2022/04/11 08:42:50;;;;;;;6.78;2.35;;;6.50;99.90;;;;;;5033268;28;20026;-70
2022/04/11 08:45:18;;;;;;;3.78;1.30;;;6.80;99.90;;;;;;5036382;28;20096;-70
2022/04/11 08:47:43;;;;;;;10.45;1.38;;;7.20;99.90;;;;;;5037240;28;20030;-70
2022/04/11 08:50:11;;;;;;;6.45;1.70;;;7.50;99.90;;;;;;5037045;28;20575;-69
2022/04/11 08:52:37;;;;;;;16.80;1.98;;;7.50;99.90;;;;;;5037105;28;20025;-69
2022/04/11 08:55:03;;;;;;;7.57;2.00;;;7.60;99.90;;;;;;5037117;28;20424;-69
2022/04/11 08:57:29;;;;;;;11.18;1.20;;;7.70;99.90;;;;;;5037227;28;20063;-69
2022/04/11 08:59:55;;;;;;;6.25;1.27;;;7.80;99.90;;;;;;5036945;28;20021;-69
2022/04/11 09:02:33;;;;;;;6.47;1.58;;;7.90;99.90;;;;;;5036952;28;20029;-69
2022/04/11 09:04:59;;;;;;;9.30;1.42;;;8.20;99.90;;;;;;5037391;28;20098;-69
2022/04/11 09:07:25;;;;;;;10.77;2.10;;;8.70;99.90;;;;;;5037047;28;20518;-70
2022/04/11 09:09:51;;;;;;;8.52;1.58;;;9.20;99.90;;;;;;5036626;28;20068;-70
2022/04/11 09:12:18;;;;;;;6.53;1.67;;;9.50;99.90;;;;;;5036715;28;20057;-70
2022/04/11 09:14:54;;;;;;;5.70;2.15;;;9.30;99.90;;;;;;5037010;28;20422;-69
2022/04/11 09:17:23;;;;;;;6.28;1.00;;;9.10;99.90;;;;;;5036884;28;20033;-69
2022/04/11 09:20:10;;;;;;;5.57;1.77;;;8.40;99.90;;;;;;5036560;28;20104;-69
2022/04/11 09:22:35;;;;;;;9.23;1.60;;;8.00;99.90;;;;;;5036900;28;20106;-69
2022/04/11 09:25:12;;;;;;;9.60;2.00;;;7.70;99.90;;;;;;5036384;28;20097;-69
2022/04/11 09:27:38;;;;;;;7.93;1.10;;;7.40;99.90;;;;;;5036535;28;20017;-69
2022/04/11 09:30:33;;;;;;;3.05;1.05;;;7.30;99.90;;;;;;5036372;28;20026;-69
2022/04/11 09:33:04;;;;;;;4.05;1.00;;;7.70;99.90;;;;;;5034166;28;20044;-69
2022/04/11 09:35:38;;;;;;;3.47;0.82;;;8.30;99.90;;;;;;5018654;28;20034;-68
2022/04/11 09:38:09;;;;;;;5.95;1.58;;;8.60;99.90;;;;;;5036605;28;20364;-68
2022/04/11 09:40:55;;;;;;;11.73;1.88;;;9.00;99.90;;;;;;5036191;28;20021;-69
2022/04/11 09:43:25;;;;;;;6.18;1.30;;;8.80;99.90;;;;;;5036806;28;20036;-69
2022/04/11 09:45:51;;;;;;;6.95;1.80;;;8.60;99.90;;;;;;5036135;28;20101;-69
2022/04/11 09:48:21;;;;;;;11.18;1.63;;;8.40;99.90;;;;;;5036182;28;20496;-68
2022/04/11 09:50:47;;;;;;;13.35;1.30;;;8.40;99.90;;;;;;5036157;28;20030;-68
2022/04/11 09:53:18;;;;;;;5.68;1.45;;;8.70;99.90;;;;;;5036136;28;20048;-69
2022/04/11 09:55:48;;;;;;;4.03;1.23;;;9.10;99.90;;;;;;5035497;28;20370;-69
2022/04/11 09:58:14;;;;;;;8.85;1.30;;;9.50;99.90;;;;;;5036201;28;20380;-69
2022/04/11 10:00:42;;;;;;;6.72;1.52;;;10.30;99.90;;;;;;5035871;28;20436;-69
2022/04/11 10:03:08;;;;;;;13.52;1.27;;;10.20;99.90;;;;;;5035781;28;20079;-69
2022/04/11 10:05:35;;;;;;;7.20;1.63;;;9.50;99.90;;;;;;5035976;28;20029;-69
2022/04/11 10:08:08;;;;;;;29.77;3.10;;;9.10;99.90;;;;;;5035724;28;20022;-69
2022/04/11 10:10:38;;;;;;;5.70;1.38;;;8.70;99.90;;;;;;5035708;28;20441;-69
2022/04/11 10:13:07;;;;;;;9.23;1.33;;;8.40;99.90;;;;;;5035810;28;20532;-69
2022/04/11 10:15:33;;;;;;;11.82;1.45;;;9.00;99.90;;;;;;5017888;28;20037;-69
2022/04/11 10:17:59;;;;;;;7.78;1.27;;;9.30;99.90;;;;;;5035526;28;20030;-69
2022/04/11 10:20:36;;;;;;;3.85;1.05;;;9.30;99.90;;;;;;5035510;28;20120;-69
2022/04/11 10:23:16;;;;;;;11.45;1.52;;;9.30;99.90;;;;;;5035427;28;20478;-69
2022/04/11 10:25:47;;;;;;;14.60;2.67;;;9.00;99.90;;;;;;5017644;28;20493;-69
2022/04/11 10:28:18;;;;;;;13.15;2.20;;;8.70;99.90;;;;;;5035362;28;20052;-69
2022/04/11 10:30:46;;;;;;;12.23;1.77;;;8.70;99.90;;;;;;5035315;28;20026;-69
2022/04/11 10:33:12;;;;;;;11.45;1.65;;;9.10;99.90;;;;;;5035306;28;20063;-69
2022/04/11 10:35:42;;;;;;;10.02;1.83;;;9.50;99.90;;;;;;5035224;28;20026;-69
2022/04/11 10:38:13;;;;;;;7.45;1.75;;;9.90;99.90;;;;;;5035339;28;20096;-69
2022/04/11 10:40:46;;;;;;;11.98;1.90;;;10.10;99.90;;;;;;5035334;28;20418;-69
2022/04/11 10:43:14;;;;;;;5.65;1.17;;;10.30;99.90;;;;;;5035468;28;20025;-70
2022/04/11 10:45:42;;;;;;;19.02;1.27;;;10.30;99.90;;;;;;5035338;28;20068;-70
2022/04/11 10:48:09;;;;;;;7.82;1.23;;;9.80;99.90;;;;;;5034949;28;20104;-70
2022/04/11 10:50:42;;;;;;;12.15;1.30;;;9.70;99.90;;;;;;5034967;28;20021;-70
2022/04/11 10:53:07;;;;;;;10.07;1.60;;;9.80;99.90;;;;;;5034868;28;20105;-70
2022/04/11 10:55:34;;;;;;;11.00;1.90;;;9.90;99.90;;;;;;5034834;28;20097;-70
2022/04/11 10:58:00;;;;;;;10.40;1.58;;;9.40;99.90;;;;;;5035381;28;20025;-70
2022/04/11 11:00:34;;;;;;;4.88;1.13;;;9.40;99.90;;;;;;5034698;28;20100;-70
2022/04/11 11:03:02;;;;;;;;;;;9.80;99.90;;;;;;5035380;28;20025;-70
2022/04/11 11:05:41;;;;;;;12.52;1.55;;;9.90;99.90;;;;;;5034597;28;19924;-69
2022/04/11 11:08:09;;;;;;;7.55;1.40;;;9.80;99.90;;;;;;5034006;28;20079;-69
2022/04/11 11:10:59;;;;;;;7.43;1.40;;;9.50;99.90;;;;;;5034280;28;20116;-69
2022/04/11 11:13:41;;;;;;;14.07;1.42;;;9.40;99.90;;;;;;4999136;28;20475;-68
2022/04/11 11:16:06;;;;;;;3.28;1.30;;;9.50;99.90;;;;;;5035032;28;20113;-68
2022/04/11 11:18:47;;;;;;;12.48;1.88;;;9.90;99.90;;;;;;5035456;28;20060;-68
2022/04/11 11:21:48;;;;;;;9.75;1.40;;;10.10;99.90;;;;;;5036162;28;20445;-68
2022/04/11 11:24:15;;;;;;;3.97;1.02;;;10.60;99.90;;;;;;5035059;28;20479;-68
2022/04/11 11:26:40;;;;;;;9.57;1.35;;;11.30;99.90;;;;;;5035060;28;20394;-68
2022/04/11 11:29:16;;;;;;;10.63;1.50;;;11.70;99.90;;;;;;5035133;28;20025;-67
2022/04/11 11:31:41;;;;;;;7.32;2.03;;;11.30;99.90;;;;;;5034489;28;20417;-67
2022/04/11 11:34:12;;;;;;;8.65;1.77;;;11.20;99.90;;;;;;5034081;28;20018;-67
2022/04/11 11:36:38;;;;;;;8.02;1.20;;;11.10;99.90;;;;;;5034072;28;20053;-67
2022/04/11 11:39:19;;;;;;;19.02;2.08;;;11.20;99.90;;;;;;5033955;28;20112;-67
2022/04/11 11:41:45;;;;;;;4.32;1.27;;;11.40;99.90;;;;;;5034001;28;20053;-67
2022/04/11 11:44:11;;;;;;;6.93;1.42;;;11.50;99.90;;;;;;5034038;28;20497;-68
2022/04/11 11:46:59;;;;;;;7.72;1.60;;;11.70;99.90;;;;;;5034154;28;20037;-67
2022/04/11 11:49:26;;;;;;;3.33;1.35;;;11.70;99.90;;;;;;5034118;28;20043;-67
2022/04/11 11:51:52;;;;;;;8.00;0.98;;;12.00;99.90;;;;;;5033901;28;20113;-67
2022/04/11 11:54:36;;;;;;;8.35;1.27;;;11.80;99.90;;;;;;5034042;28;20022;-67
2022/04/11 11:57:02;;;;;;;5.90;1.60;;;12.30;99.90;;;;;;5034131;28;20025;-68
2022/04/11 11:59:28;;;;;;;10.23;1.42;;;12.60;99.90;;;;;;5033920;28;20075;-68
2022/04/11 12:04:18;;;;;;;5.18;1.38;;;12.60;99.90;;;;;;5033808;28;20026;-68
2022/04/11 12:04:40;;;;;;;9.82;1.33;;;12.90;99.90;;;;;;5033352;28;20056;-68
2022/04/11 12:07:06;;;;;;;7.68;1.08;;;13.50;99.90;;;;;;5033884;28;20112;-67
2022/04/11 12:09:38;;;;;;;5.57;1.35;;;13.40;99.90;;;;;;5033383;28;20029;-67
2022/04/11 12:12:05;;;;;;;10.80;1.92;;;13.10;99.90;;;;;;5033488;28;20474;-67
2022/04/11 12:15:09;;;;;;;3.97;1.25;;;12.80;99.90;;;;;;5033792;28;20037;-67
2022/04/11 12:17:39;;;;;;;9.43;1.58;;;12.60;99.90;;;;;;5033797;28;20032;-67
2022/04/11 12:20:11;;;;;;;6.55;1.88;;;12.20;99.90;;;;;;5033133;28;20100;-67
2022/04/11 12:22:37;;;;;;;6.63;1.50;;;12.40;99.90;;;;;;5033458;28;20033;-67
2022/04/11 12:25:27;;;;;;;5.82;1.20;;;13.10;99.90;;;;;;5033233;28;20026;-68
2022/04/11 12:28:14;;;;;;;4.03;1.05;;;14.00;99.90;;;;;;5033623;28;20460;-67
2022/04/11 12:30:46;;;;;;;10.82;1.50;;;13.90;99.90;;;;;;5033334;28;20104;-67
2022/04/11 12:33:44;;;;;;;9.27;1.30;;;13.20;99.90;;;;;;5033836;28;20025;-68
2022/04/11 12:36:20;;;;;;;7.25;1.30;;;12.50;99.90;;;;;;5033385;28;20049;-68
2022/04/11 12:38:52;;;;;;;5.28;1.40;;;12.30;99.90;;;;;;5015470;28;20433;-67
2022/04/11 12:41:36;;;;;;;3.58;1.40;;;12.50;99.90;;;;;;5033188;28;20022;-68
2022/04/11 12:44:14;;;;;;;11.73;1.67;;;13.50;99.90;;;;;;5033487;28;20057;-68
2022/04/11 12:47:03;;;;;;;4.30;1.23;;;13.50;99.90;;;;;;5033255;28;20026;-68
2022/04/11 12:49:47;;;;;;;5.68;1.40;;;13.40;99.90;;;;;;5033151;28;20539;-68
2022/04/11 12:52:14;;;;;;;;;;;14.00;99.90;;;;;;5033571;28;20068;-68
2022/04/11 12:54:41;;;;;;;5.45;1.13;;;14.60;99.90;;;;;;5033101;28;19940;-68